ASV907 RKSS-RKPC
Flight info
| Callsign | ASV907 |
|---|---|
| Flight time | 0h 55m |
| Altitude | 22000 |
| Route | BULTI2Q BULTI Y711 DOTOL DOTOL2P |
| Aircraft | A321/M-SDE3FGHIRWY/LB1 |
Departure
| Time | 2025-09-09 13:24 |
|---|---|
| Airport | Gimpo International Airport (RKSS) |
Arrival
| Time | 2025-09-09 14:19 |
|---|---|
| Airport | Jeju International Airport (RKPC) |
| Time | Latitude | Longitude | Altitude | Speed | Heading |
|---|---|---|---|---|---|
| 2025-09-09 13:07 | 37.55563 | 126.80181 | 67 ft | 0 kts | 225° |
| 2025-09-09 13:19 | 37.55546 | 126.80160 | 64 ft | 7 kts | 225° |
| 2025-09-09 13:20 | 37.55335 | 126.80306 | 59 ft | 19 kts | 135° |
| 2025-09-09 13:20 | 37.55077 | 126.80630 | 62 ft | 19 kts | 135° |
| 2025-09-09 13:21 | 37.54898 | 126.80834 | 60 ft | 11 kts | 173° |
| 2025-09-09 13:21 | 37.54825 | 126.80650 | 59 ft | 15 kts | 313° |
| 2025-09-09 13:22 | 37.54861 | 126.80607 | 58 ft | 1 kts | 316° |
| 2025-09-09 13:22 | 37.55004 | 126.80428 | 58 ft | 65 kts | 314° |
| 2025-09-09 13:23 | 37.56248 | 126.78858 | 63 ft | 177 kts | 315° |
| 2025-09-09 13:23 | 37.57990 | 126.76647 | 1345 ft | 177 kts | 313° |
| 2025-09-09 13:24 | 37.59748 | 126.74252 | 2188 ft | 204 kts | 313° |
| 2025-09-09 13:24 | 37.62457 | 126.69178 | 2914 ft | 266 kts | 269° |
| 2025-09-09 13:25 | 37.60757 | 126.65059 | 4158 ft | 275 kts | 224° |
| 2025-09-09 13:25 | 37.59196 | 126.63681 | 4811 ft | 278 kts | 200° |
| 2025-09-09 13:26 | 37.55414 | 126.63541 | 6086 ft | 279 kts | 166° |
| 2025-09-09 13:26 | 37.51535 | 126.64445 | 7375 ft | 286 kts | 166° |
| 2025-09-09 13:27 | 37.47585 | 126.65371 | 8643 ft | 292 kts | 167° |
| 2025-09-09 13:27 | 37.43547 | 126.66302 | 9909 ft | 298 kts | 168° |
| 2025-09-09 13:28 | 37.32201 | 126.68894 | 10828 ft | 379 kts | 169° |
| 2025-09-09 13:29 | 37.26950 | 126.70096 | 11769 ft | 386 kts | 169° |
| 2025-09-09 13:29 | 37.21625 | 126.71308 | 12797 ft | 391 kts | 170° |
| 2025-09-09 13:30 | 37.18936 | 126.71924 | 13320 ft | 393 kts | 171° |
| 2025-09-09 13:30 | 37.13521 | 126.73164 | 14281 ft | 398 kts | 171° |
| 2025-09-09 13:31 | 37.08045 | 126.74407 | 15161 ft | 402 kts | 172° |
| 2025-09-09 13:31 | 37.05285 | 126.75033 | 15599 ft | 404 kts | 172° |
| 2025-09-09 13:31 | 36.99719 | 126.76283 | 16451 ft | 408 kts | 172° |
| 2025-09-09 13:32 | 36.88425 | 126.78841 | 18029 ft | 417 kts | 173° |
| 2025-09-09 13:33 | 36.85558 | 126.79498 | 18392 ft | 419 kts | 173° |
| 2025-09-09 13:33 | 36.79799 | 126.80804 | 19048 ft | 422 kts | 174° |
| 2025-09-09 13:34 | 36.73956 | 126.82119 | 19693 ft | 426 kts | 174° |
| 2025-09-09 13:34 | 36.68090 | 126.82657 | 20333 ft | 424 kts | 183° |
| 2025-09-09 13:35 | 36.62166 | 126.82878 | 20980 ft | 427 kts | 183° |
| 2025-09-09 13:35 | 36.56201 | 126.83118 | 21593 ft | 430 kts | 184° |
| 2025-09-09 13:36 | 36.50207 | 126.83352 | 21996 ft | 434 kts | 184° |
| 2025-09-09 13:36 | 36.40936 | 126.83687 | 21998 ft | 449 kts | 184° |
| 2025-09-09 13:37 | 36.34744 | 126.83365 | 21994 ft | 444 kts | 190° |
| 2025-09-09 13:37 | 36.28587 | 126.82689 | 21991 ft | 444 kts | 190° |
| 2025-09-09 13:38 | 36.25510 | 126.82351 | 21993 ft | 444 kts | 190° |
| 2025-09-09 13:38 | 36.19359 | 126.81675 | 21987 ft | 444 kts | 190° |
| 2025-09-09 13:39 | 36.13195 | 126.81008 | 21983 ft | 444 kts | 190° |
| 2025-09-09 13:39 | 36.07035 | 126.80340 | 21983 ft | 444 kts | 190° |
| 2025-09-09 13:40 | 36.00880 | 126.79670 | 21980 ft | 445 kts | 190° |
| 2025-09-09 13:40 | 35.91574 | 126.78669 | 21981 ft | 446 kts | 190° |
| 2025-09-09 13:41 | 35.85398 | 126.77999 | 21980 ft | 446 kts | 190° |
| 2025-09-09 13:41 | 35.79217 | 126.77331 | 21984 ft | 446 kts | 189° |
| 2025-09-09 13:42 | 35.76115 | 126.76995 | 21981 ft | 446 kts | 189° |
| 2025-09-09 13:42 | 35.69934 | 126.76327 | 21985 ft | 447 kts | 189° |
| 2025-09-09 13:43 | 35.63734 | 126.75658 | 21979 ft | 447 kts | 189° |
| 2025-09-09 13:43 | 35.57537 | 126.74992 | 21981 ft | 447 kts | 189° |
| 2025-09-09 13:44 | 35.51346 | 126.74317 | 21986 ft | 447 kts | 189° |
| 2025-09-09 13:44 | 35.45145 | 126.73650 | 21985 ft | 447 kts | 189° |
| 2025-09-09 13:45 | 35.35834 | 126.72661 | 21982 ft | 448 kts | 189° |
| 2025-09-09 13:45 | 35.29631 | 126.72000 | 21977 ft | 448 kts | 189° |
| 2025-09-09 13:46 | 35.26527 | 126.71668 | 21978 ft | 448 kts | 189° |
| 2025-09-09 13:46 | 35.20311 | 126.71006 | 21976 ft | 448 kts | 189° |
| 2025-09-09 13:47 | 35.14099 | 126.70353 | 21976 ft | 448 kts | 189° |
| 2025-09-09 13:47 | 35.07887 | 126.69690 | 21973 ft | 448 kts | 189° |
| 2025-09-09 13:47 | 35.05784 | 126.69467 | 21974 ft | 449 kts | 189° |
| 2025-09-09 13:48 | 34.98487 | 126.68684 | 21323 ft | 449 kts | 189° |
| 2025-09-09 13:49 | 34.87180 | 126.67493 | 19729 ft | 442 kts | 189° |
| 2025-09-09 13:49 | 34.81079 | 126.66847 | 18727 ft | 438 kts | 188° |
| 2025-09-09 13:50 | 34.78045 | 126.66527 | 18235 ft | 437 kts | 188° |
| 2025-09-09 13:50 | 34.72041 | 126.65902 | 17114 ft | 429 kts | 188° |
| 2025-09-09 13:51 | 34.66140 | 126.65285 | 16030 ft | 422 kts | 188° |
| 2025-09-09 13:51 | 34.60343 | 126.64674 | 15091 ft | 415 kts | 188° |
| 2025-09-09 13:52 | 34.54594 | 126.64069 | 14965 ft | 415 kts | 188° |
| 2025-09-09 13:52 | 34.45955 | 126.63164 | 14959 ft | 415 kts | 188° |
| 2025-09-09 13:53 | 34.40222 | 126.62552 | 14340 ft | 410 kts | 188° |
| 2025-09-09 13:53 | 34.34523 | 126.61955 | 13937 ft | 408 kts | 187° |
| 2025-09-09 13:54 | 34.31691 | 126.61662 | 13956 ft | 409 kts | 187° |
| 2025-09-09 13:54 | 34.28854 | 126.61368 | 13954 ft | 409 kts | 187° |
| 2025-09-09 13:55 | 34.20384 | 126.60495 | 12920 ft | 403 kts | 187° |
| 2025-09-09 13:55 | 34.14852 | 126.59921 | 11958 ft | 392 kts | 187° |
| 2025-09-09 13:56 | 34.09570 | 126.59374 | 11009 ft | 372 kts | 187° |
| 2025-09-09 13:56 | 34.02020 | 126.58575 | 9375 ft | 354 kts | 190° |
| 2025-09-09 13:57 | 33.97719 | 126.56436 | 8988 ft | 318 kts | 218° |
| 2025-09-09 13:57 | 33.94356 | 126.53197 | 8153 ft | 308 kts | 220° |
| 2025-09-09 13:58 | 33.92693 | 126.51593 | 7655 ft | 306 kts | 220° |
| 2025-09-09 13:58 | 33.89413 | 126.48425 | 7007 ft | 292 kts | 220° |
| 2025-09-09 13:59 | 33.86416 | 126.45522 | 7004 ft | 270 kts | 220° |
| 2025-09-09 13:59 | 33.83487 | 126.42683 | 7004 ft | 270 kts | 220° |
| 2025-09-09 14:00 | 33.80809 | 126.40096 | 6998 ft | 271 kts | 220° |
| 2025-09-09 14:00 | 33.76412 | 126.35857 | 7007 ft | 270 kts | 220° |
| 2025-09-09 14:01 | 33.73787 | 126.33013 | 7003 ft | 237 kts | 239° |
| 2025-09-09 14:01 | 33.73174 | 126.29250 | 7003 ft | 237 kts | 278° |
| 2025-09-09 14:02 | 33.73447 | 126.27292 | 7003 ft | 238 kts | 277° |
| 2025-09-09 14:02 | 33.73972 | 126.23369 | 7000 ft | 238 kts | 276° |
| 2025-09-09 14:03 | 33.73749 | 126.19446 | 7003 ft | 237 kts | 261° |
| 2025-09-09 14:03 | 33.73295 | 126.15523 | 6999 ft | 237 kts | 261° |
| 2025-09-09 14:04 | 33.72609 | 126.11651 | 6997 ft | 238 kts | 244° |
| 2025-09-09 14:04 | 33.70496 | 126.06233 | 6995 ft | 239 kts | 245° |
| 2025-09-09 14:05 | 33.68899 | 126.02763 | 7002 ft | 238 kts | 229° |
| 2025-09-09 14:05 | 33.67790 | 126.01287 | 6996 ft | 238 kts | 229° |
| 2025-09-09 14:06 | 33.65576 | 125.98333 | 6997 ft | 238 kts | 229° |
| 2025-09-09 14:06 | 33.63213 | 125.95569 | 6997 ft | 239 kts | 213° |
| 2025-09-09 14:07 | 33.60327 | 125.93483 | 6996 ft | 240 kts | 212° |
| 2025-09-09 14:07 | 33.58895 | 125.92444 | 6992 ft | 240 kts | 213° |
| 2025-09-09 14:08 | 33.54290 | 125.90137 | 6996 ft | 243 kts | 196° |
| 2025-09-09 14:08 | 33.49354 | 125.88629 | 6903 ft | 246 kts | 194° |
| 2025-09-09 14:09 | 33.46034 | 125.89239 | 6191 ft | 254 kts | 146° |
| 2025-09-09 14:09 | 33.44861 | 125.90832 | 5796 ft | 259 kts | 117° |
| 2025-09-09 14:10 | 33.44556 | 125.95118 | 4936 ft | 266 kts | 87° |
| 2025-09-09 14:10 | 33.44765 | 125.99588 | 4081 ft | 270 kts | 87° |
| 2025-09-09 14:11 | 33.44951 | 126.03876 | 3982 ft | 242 kts | 88° |
| 2025-09-09 14:11 | 33.45127 | 126.07941 | 3990 ft | 245 kts | 87° |
| 2025-09-09 14:12 | 33.45298 | 126.12015 | 3994 ft | 245 kts | 88° |
| 2025-09-09 14:12 | 33.45551 | 126.18153 | 3882 ft | 249 kts | 88° |
| 2025-09-09 14:13 | 33.45424 | 126.22352 | 2979 ft | 256 kts | 107° |
| 2025-09-09 14:13 | 33.43948 | 126.25970 | 2906 ft | 235 kts | 119° |
| 2025-09-09 14:14 | 33.43163 | 126.27709 | 2628 ft | 238 kts | 118° |
| 2025-09-09 14:14 | 33.42340 | 126.31413 | 1964 ft | 229 kts | 80° |
| 2025-09-09 14:15 | 33.43684 | 126.34577 | 1803 ft | 195 kts | 59° |
| 2025-09-09 14:15 | 33.44906 | 126.36974 | 1805 ft | 149 kts | 59° |
| 2025-09-09 14:16 | 33.45965 | 126.39035 | 1580 ft | 145 kts | 59° |
| 2025-09-09 14:16 | 33.47540 | 126.42092 | 1066 ft | 144 kts | 60° |
| 2025-09-09 14:17 | 33.48376 | 126.43911 | 732 ft | 139 kts | 66° |
| 2025-09-09 14:17 | 33.48945 | 126.44854 | 537 ft | 144 kts | 52° |
| 2025-09-09 14:18 | 33.49988 | 126.46842 | 182 ft | 139 kts | 59° |
| 2025-09-09 14:18 | 33.50835 | 126.48501 | 137 ft | 107 kts | 58° |
| 2025-09-09 14:19 | 33.51242 | 126.49285 | 134 ft | 45 kts | 58° |
| 2025-09-09 14:19 | 33.51244 | 126.49534 | 134 ft | 13 kts | 136° |
| 2025-09-09 14:19 | 33.51145 | 126.49612 | 134 ft | 13 kts | 148° |
| 2025-09-09 14:20 | 33.50923 | 126.49389 | 134 ft | 11 kts | 237° |
| 2025-09-09 14:21 | 33.50906 | 126.49361 | 134 ft | 4 kts | 235° |
| 2025-09-09 14:21 | 33.50882 | 126.49320 | 134 ft | 4 kts | 223° |
| 2025-09-09 14:22 | 33.50776 | 126.49302 | 135 ft | 0 kts | 182° |